Terminal Aerodrome Forecast
Issued by NWS Cleveland, OH

Home | Current Version | Previous Version | Text Only | Print | Product List | Glossary Off
Versions: 1 2 3 4 5 6 7 8 9 10 11 12

000
FTUS41 KCLE 272332
TAFCAK
TAF
KCAK 272332Z 2800/2824 21012G20KT P6SM BKN045
      TEMPO 2800/2803 27015G25KT 2SM TSRA OVC035CB
     FM280300 24008KT P6SM VCSH BKN070
     FM280500 27005KT P6SM BKN120
     FM280900 32003KT 5SM BR SKC
     FM281400 04005KT P6SM SKC=

USA.gov is the U.S. government's official web portal to all federal, state and local government web resources and services.